Rockland, ME

06:34 AM EST del 31 Gennaio 2015 (GMT -0500)
Upper Park Street | Change Station
CLOSE
Current Station
Stazione meteo personale
Location: Rockland, ME
Altitudine: 79 ft
Stazioni meteo nelle vicinanze
Avvisi attivi: Winter Storm Warning Notifica attiva: Public Information Statement

Alt. 79 ft 44.10 °N, 69.13 °W | Updated 10 seconds ago

Neve
Neve
18.4 °F
Sembra 3 °F
N
17.3
Vento Variabile Vento da NO
Gusts 29.0 mph

Oggi
Massima -- | Minima -- °F
--% Possibilità di precip.
Ieri
Massima -- | Minima -- °F
Precip. -- in
6:55 AM 4:44 PM
Gobba a ponente, 89% visible
Pressione 29.61 in
Visibilità 1.5 miglia
Nuvole Coperto 1400 ft
Raffreddamento del vento 3 °F
Punto di rugiada 16 °F
Umidità 90%
Piovosità 0.00 in
Spessore del manto nevoso Non disponibile.
Raggi UV 0 fuori da 12
Polline .10 fuori da 12
Qualità dell'aria Non disponibile.
Flu Activity Non disponibile.
METAR KRKD 311115Z AUTO 00000KT 1 1/2SM OVC014 M08/M10 A2961 RMK AO1

More Conditions Fewer Conditions

Pressione 29.61 in
Visibilità 1.5 miglia
Nuvole Coperto 1400 ft
Raffreddamento del vento 3 °F
Punto di rugiada 16 °F
Umidità 90%
Piovosità 0.00 in
Spessore del manto nevoso Non disponibile.
Raggi UV 0 fuori da 12
Polline .10 fuori da 12
Qualità dell'aria Non disponibile.
Flu Activity Non disponibile.
METAR KRKD 311115Z AUTO 00000KT 1 1/2SM OVC014 M08/M10 A2961 RMK AO1

More Conditions Fewer Conditions

10-Day Weather Forecast

Almanac

Astronomia

Jan. 31, 2015 Alba Tramonto
Ora attuale
Crepuscolo civile
Crepuscolo nautico
Crepuscolo astronomico
Luna
Estensione della luce visibile
Lunghezza del giorno
Tomorrow will be .
, % of the Moon is Illuminated

Gli estremi di oggi

State Highs State Lows

Community

WunderPhotos

Upload Photos

1,792,032 foto caricate!

WunderBlogs® & News

Nearby

Qualità dell'aria

  Qualità dell'aria Indice AQ Inquinante
Not available.

Profondità neve

Stazione Profondità Altitudine

Attività sismica

Città  Distanza Mag. Data & Ora
Minimo Magnitudo Mostrato è 2.5.

Temperature delle acque costiere

Località Temperatura

Stazioni meteo nelle vicinanze